Time;durP1;ratioP1;P1;durP2;ratioP2;P2;SDS_P1;SDS_P2;PMS_P1;PMS_P2;Temp;Humidity;BMP_temperature;BMP_pressure;BME280_temperature;BME280_humidity;BME280_pressure;Samples;Min_cycle;Max_cycle;Signal;HPM_P1;HPM_P2
2021/10/25 00:00:44;;;;;;;20.90;5.88;;;12.00;99.90;;;;;;2096370;28;20679;-74
2021/10/25 00:01:45;;;;;;;16.45;5.22;;;12.10;99.90;;;;;;2095704;28;20053;-75
2021/10/25 00:02:45;;;;;;;12.88;5.30;;;12.10;99.90;;;;;;2087947;28;20086;-75
2021/10/25 00:03:46;;;;;;;14.25;4.90;;;12.10;99.90;;;;;;2088768;28;20045;-74
2021/10/25 00:04:47;;;;;;;16.15;5.15;;;12.10;99.90;;;;;;2083396;28;20025;-75
2021/10/25 00:05:48;;;;;;;13.32;4.57;;;12.10;99.90;;;;;;2080235;28;20021;-75
2021/10/25 00:06:49;;;;;;;13.25;4.88;;;12.10;99.90;;;;;;2087062;28;20021;-75
2021/10/25 00:07:49;;;;;;;16.25;5.40;;;12.00;99.90;;;;;;2098045;28;20083;-74
2021/10/25 00:08:50;;;;;;;17.05;5.32;;;12.00;99.90;;;;;;2100022;28;20032;-75
2021/10/25 00:09:51;;;;;;;13.45;4.88;;;12.00;99.90;;;;;;2082873;28;20022;-76
2021/10/25 00:10:51;;;;;;;13.27;4.88;;;12.00;99.90;;;;;;2079611;28;20558;-75
2021/10/25 00:11:52;;;;;;;15.55;4.85;;;12.00;99.90;;;;;;2074574;28;20030;-75
2021/10/25 00:12:53;;;;;;;15.02;5.05;;;12.00;99.90;;;;;;2069773;28;20023;-75
2021/10/25 00:13:53;;;;;;;14.50;5.00;;;12.00;99.90;;;;;;2091185;28;20020;-74
2021/10/25 00:14:54;;;;;;;22.17;5.18;;;12.00;99.90;;;;;;2086252;28;20441;-76
2021/10/25 00:15:55;;;;;;;15.70;4.75;;;12.10;99.90;;;;;;2066786;28;20049;-75
2021/10/25 00:16:56;;;;;;;16.08;5.05;;;12.10;99.90;;;;;;2073319;28;20096;-74
2021/10/25 00:17:56;;;;;;;16.05;5.32;;;12.10;99.90;;;;;;2083355;28;20049;-75
2021/10/25 00:18:57;;;;;;;14.02;4.60;;;12.10;99.90;;;;;;2083088;28;20025;-74
2021/10/25 00:19:58;;;;;;;16.33;5.13;;;12.10;99.90;;;;;;2083466;28;20024;-74
2021/10/25 00:20:58;;;;;;;27.60;5.40;;;12.20;99.90;;;;;;2089659;28;21012;-74
2021/10/25 00:21:59;;;;;;;18.35;4.88;;;12.20;99.90;;;;;;2075650;28;20026;-74
2021/10/25 00:23:01;;;;;;;16.13;4.53;;;12.20;99.90;;;;;;2073738;28;20022;-75
2021/10/25 00:24:03;;;;;;;16.90;4.78;;;12.20;99.90;;;;;;2082122;28;20022;-74
2021/10/25 00:25:04;;;;;;;17.10;4.80;;;12.20;99.90;;;;;;2073875;28;20018;-75
2021/10/25 00:26:05;;;;;;;16.02;5.38;;;12.30;99.90;;;;;;2082219;28;20021;-75
2021/10/25 00:27:05;;;;;;;15.68;4.70;;;12.30;99.90;;;;;;2080529;28;20504;-75
2021/10/25 00:28:06;;;;;;;13.68;4.53;;;12.30;99.90;;;;;;2069237;28;20026;-75
2021/10/25 00:29:07;;;;;;;20.80;4.68;;;12.30;99.90;;;;;;2066240;28;20066;-75
2021/10/25 00:30:09;;;;;;;16.52;4.72;;;12.30;99.90;;;;;;2077610;28;20044;-74
2021/10/25 00:31:10;;;;;;;18.17;4.97;;;12.20;99.90;;;;;;2098598;28;20056;-77
2021/10/25 00:32:10;;;;;;;12.75;5.00;;;12.30;99.90;;;;;;2098503;28;20090;-74
2021/10/25 00:33:11;;;;;;;21.02;5.15;;;12.30;99.90;;;;;;2081557;28;20432;-74
2021/10/25 00:34:14;;;;;;;12.07;4.95;;;12.30;99.90;;;;;;2078342;28;20030;-75
2021/10/25 00:35:14;;;;;;;18.13;5.15;;;12.30;99.90;;;;;;2075768;28;20024;-75
2021/10/25 00:36:15;;;;;;;24.00;5.53;;;12.30;99.90;;;;;;2082212;28;20555;-74
2021/10/25 00:37:16;;;;;;;25.87;6.63;;;12.30;99.90;;;;;;2090308;28;20020;-74
2021/10/25 00:38:17;;;;;;;15.80;4.70;;;12.30;99.90;;;;;;2089583;28;20256;-75
2021/10/25 00:39:18;;;;;;;19.80;4.95;;;12.30;99.90;;;;;;2082286;28;20112;-75
2021/10/25 00:40:20;;;;;;;17.77;5.05;;;12.30;99.90;;;;;;2084390;28;20104;-75
2021/10/25 00:41:20;;;;;;;20.40;6.72;;;12.30;99.90;;;;;;2075922;28;20768;-75
2021/10/25 00:42:21;;;;;;;19.10;6.00;;;12.30;99.90;;;;;;2074376;28;20092;-75
2021/10/25 00:43:22;;;;;;;16.63;5.13;;;12.40;99.90;;;;;;2074523;28;20439;-74
2021/10/25 00:44:24;;;;;;;15.88;4.80;;;12.30;99.90;;;;;;2090652;28;20013;-75
2021/10/25 00:45:24;;;;;;;16.73;5.30;;;12.40;99.90;;;;;;2092788;28;20021;-75
2021/10/25 00:46:25;;;;;;;21.00;5.47;;;12.40;99.90;;;;;;2081720;28;20025;-77
2021/10/25 00:47:26;;;;;;;19.42;5.40;;;12.40;99.90;;;;;;2083274;28;20030;-74
2021/10/25 00:48:27;;;;;;;23.70;5.25;;;12.30;99.90;;;;;;2084751;28;20018;-75
2021/10/25 00:49:28;;;;;;;21.48;5.68;;;12.40;99.90;;;;;;2097086;28;20023;-75
2021/10/25 00:50:29;;;;;;;16.92;5.00;;;12.30;99.90;;;;;;2084183;28;20471;-75
2021/10/25 00:51:29;;;;;;;18.55;4.97;;;12.40;99.90;;;;;;2086880;28;20109;-77
2021/10/25 00:52:31;;;;;;;22.05;5.40;;;12.30;99.90;;;;;;2087505;28;20121;-76
2021/10/25 00:53:32;;;;;;;20.25;5.05;;;12.40;99.90;;;;;;2083117;28;20033;-75
2021/10/25 00:54:35;;;;;;;23.65;5.55;;;12.40;99.90;;;;;;2079404;28;20021;-75
2021/10/25 00:55:38;;;;;;;22.92;5.13;;;12.40;99.90;;;;;;2083672;28;20112;-75
2021/10/25 00:56:42;;;;;;;16.80;4.60;;;12.40;99.90;;;;;;2091650;28;20111;-74
2021/10/25 00:57:43;;;;;;;15.48;4.38;;;12.40;99.90;;;;;;2083976;28;20033;-75
2021/10/25 00:58:44;;;;;;;19.30;4.78;;;12.40;99.90;;;;;;2081335;28;20025;-75
2021/10/25 00:59:45;;;;;;;16.02;5.20;;;12.40;99.90;;;;;;2075873;28;20072;-76
2021/10/25 01:00:45;;;;;;;13.95;4.50;;;12.50;99.90;;;;;;2078226;28;20036;-77
2021/10/25 01:01:47;;;;;;;14.35;4.43;;;12.50;99.90;;;;;;2085090;28;20045;-76
2021/10/25 01:02:47;;;;;;;18.17;4.90;;;12.50;99.90;;;;;;2080514;28;20100;-76
2021/10/25 01:03:48;;;;;;;24.77;5.00;;;12.50;99.90;;;;;;2085191;28;20088;-79
2021/10/25 01:04:49;;;;;;;14.80;4.60;;;12.50;99.90;;;;;;2084766;28;20048;-76
2021/10/25 01:05:50;;;;;;;20.67;5.20;;;12.50;99.90;;;;;;2084934;28;20030;-75
2021/10/25 01:06:51;;;;;;;21.50;4.60;;;12.50;99.90;;;;;;2085029;28;20014;-78
2021/10/25 01:07:55;;;;;;;13.85;4.13;;;12.50;99.90;;;;;;2079329;28;20575;-77
2021/10/25 01:08:57;;;;;;;16.25;4.35;;;12.50;99.90;;;;;;2092027;28;20100;-76
2021/10/25 01:09:57;;;;;;;;;;;12.50;99.90;;;;;;2085509;28;20021;-77
2021/10/25 01:10:59;;;;;;;12.23;4.28;;;12.50;99.90;;;;;;2081970;28;19991;-76
2021/10/25 01:12:00;;;;;;;17.88;4.90;;;12.50;99.90;;;;;;2082358;28;20935;-77
2021/10/25 01:13:01;;;;;;;15.02;4.45;;;12.50;99.90;;;;;;2081600;28;20057;-77
2021/10/25 01:14:02;;;;;;;16.35;4.30;;;12.50;99.90;;;;;;2073840;28;20080;-79
2021/10/25 01:15:04;;;;;;;22.13;5.22;;;12.50;99.90;;;;;;2071634;28;20029;-78
2021/10/25 01:16:07;;;;;;;28.35;4.97;;;12.50;99.90;;;;;;2079185;28;20397;-79
2021/10/25 01:17:08;;;;;;;13.18;4.20;;;12.50;99.90;;;;;;2075180;28;20034;-79
2021/10/25 01:18:09;;;;;;;20.33;4.78;;;12.60;99.90;;;;;;2073906;28;20410;-79
2021/10/25 01:19:09;;;;;;;16.73;4.45;;;12.60;99.90;;;;;;2073812;28;20037;-79
2021/10/25 01:20:10;;;;;;;12.88;4.30;;;12.60;99.90;;;;;;2073647;28;20538;-79
2021/10/25 01:21:14;;;;;;;15.75;4.65;;;12.60;99.90;;;;;;2076185;28;20034;-78
2021/10/25 01:22:19;;;;;;;20.33;4.90;;;12.60;99.90;;;;;;2073982;28;20061;-79
2021/10/25 01:23:20;;;;;;;17.25;5.55;;;12.60;99.90;;;;;;2077577;28;20021;-79
2021/10/25 01:24:21;;;;;;;15.43;4.35;;;12.60;99.90;;;;;;2081487;28;20444;-78
2021/10/25 01:25:22;;;;;;;15.65;4.60;;;12.50;99.90;;;;;;2085536;28;20021;-78
2021/10/25 01:26:23;;;;;;;18.40;5.05;;;12.50;99.90;;;;;;2074685;28;20030;-79
2021/10/25 01:27:24;;;;;;;14.00;4.57;;;12.60;99.90;;;;;;2090041;28;20029;-79
2021/10/25 01:28:25;;;;;;;26.88;5.00;;;12.50;99.90;;;;;;2078040;28;20518;-79
2021/10/25 01:29:25;;;;;;;15.45;5.15;;;12.50;99.90;;;;;;2073499;28;20034;-79
2021/10/25 01:30:26;;;;;;;14.82;5.03;;;12.50;99.90;;;;;;2076019;28;20021;-78
2021/10/25 01:31:27;;;;;;;14.65;4.80;;;12.50;99.90;;;;;;2078173;28;20060;-79
2021/10/25 01:32:28;;;;;;;15.18;5.22;;;12.50;99.90;;;;;;2077742;28;20030;-79
2021/10/25 01:33:30;;;;;;;15.63;5.40;;;12.50;99.90;;;;;;2076812;28;20030;-79
2021/10/25 01:34:30;;;;;;;;;;;12.50;99.90;;;;;;2074230;28;20057;-79
2021/10/25 01:35:31;;;;;;;16.25;4.85;;;12.50;99.90;;;;;;2077295;28;19905;-77
2021/10/25 01:36:32;;;;;;;15.00;4.97;;;12.50;99.90;;;;;;2083870;28;20033;-78
2021/10/25 01:37:33;;;;;;;17.13;4.78;;;12.50;99.90;;;;;;2082851;28;20052;-78
2021/10/25 01:38:33;;;;;;;17.52;5.22;;;12.50;99.90;;;;;;2074487;28;20417;-78
2021/10/25 01:39:35;;;;;;;18.75;5.53;;;12.50;99.90;;;;;;2074215;28;20037;-77
2021/10/25 01:40:35;;;;;;;16.98;5.10;;;12.50;99.90;;;;;;2078004;28;20079;-77
2021/10/25 01:41:37;;;;;;;14.38;4.97;;;12.50;99.90;;;;;;2081605;28;20489;-78
2021/10/25 01:42:38;;;;;;;15.85;5.63;;;12.50;99.90;;;;;;2073837;28;20018;-77
2021/10/25 01:43:39;;;;;;;18.95;5.35;;;12.50;99.90;;;;;;2073326;28;20441;-78
2021/10/25 01:44:39;;;;;;;19.20;5.00;;;12.50;99.90;;;;;;2081050;28;20033;-76
2021/10/25 01:45:40;;;;;;;17.60;5.13;;;12.50;99.90;;;;;;2081824;28;20141;-77
2021/10/25 01:46:42;;;;;;;15.10;5.15;;;12.50;99.90;;;;;;2077295;28;20469;-76
2021/10/25 01:47:43;;;;;;;;;;;12.50;99.90;;;;;;2084579;28;20033;-78
2021/10/25 01:48:43;;;;;;;17.27;5.03;;;12.50;99.90;;;;;;2081354;28;19905;-78
2021/10/25 01:49:44;;;;;;;17.55;5.05;;;12.50;99.90;;;;;;2072891;28;20018;-76
2021/10/25 01:50:45;;;;;;;19.80;5.85;;;12.50;99.90;;;;;;2073200;28;20021;-77
2021/10/25 01:51:46;;;;;;;15.75;5.13;;;12.60;99.90;;;;;;2081292;28;20025;-75
2021/10/25 01:52:47;;;;;;;15.45;5.32;;;12.60;99.90;;;;;;2077024;28;20093;-78
2021/10/25 01:53:47;;;;;;;18.17;5.43;;;12.60;99.90;;;;;;2065306;28;20498;-78
2021/10/25 01:54:48;;;;;;;16.95;5.70;;;12.60;99.90;;;;;;2065210;28;20110;-79
2021/10/25 01:55:55;;;;;;;15.05;5.90;;;12.60;99.90;;;;;;2065981;28;20097;-78
2021/10/25 01:56:56;;;;;;;16.25;5.80;;;12.60;99.90;;;;;;2067470;28;20027;-78
2021/10/25 01:57:57;;;;;;;18.17;5.30;;;12.70;99.90;;;;;;2077966;28;20033;-79
2021/10/25 01:58:58;;;;;;;18.45;6.32;;;12.70;99.90;;;;;;2081963;28;20013;-79
2021/10/25 01:59:59;;;;;;;17.73;5.50;;;12.70;99.90;;;;;;2081564;28;20116;-79
2021/10/25 02:01:00;;;;;;;19.88;5.78;;;12.70;99.90;;;;;;2081342;28;20029;-79
2021/10/25 02:02:01;;;;;;;22.20;5.82;;;12.70;99.90;;;;;;2081345;28;20056;-79
2021/10/25 02:03:01;;;;;;;19.23;6.15;;;12.70;99.90;;;;;;2073330;28;20010;-79
2021/10/25 02:04:03;;;;;;;13.18;5.38;;;12.70;99.90;;;;;;2073527;28;20567;-79
2021/10/25 02:05:04;;;;;;;19.35;5.82;;;12.70;99.90;;;;;;2077120;28;20026;-79
2021/10/25 02:06:05;;;;;;;17.90;5.75;;;12.70;99.90;;;;;;2093695;28;20029;-79
2021/10/25 02:07:05;;;;;;;15.30;5.80;;;12.70;99.90;;;;;;2096387;28;20027;-79
2021/10/25 02:08:06;;;;;;;17.10;5.70;;;12.70;99.90;;;;;;2085170;28;20099;-79
2021/10/25 02:09:07;;;;;;;13.90;6.35;;;12.70;99.90;;;;;;2080413;28;21014;-79
2021/10/25 02:10:08;;;;;;;18.30;6.10;;;12.70;99.90;;;;;;2081346;28;20025;-80
2021/10/25 02:11:09;;;;;;;22.77;5.93;;;12.70;99.90;;;;;;2081127;28;20505;-80
2021/10/25 02:12:09;;;;;;;22.83;6.47;;;12.70;99.90;;;;;;2073551;28;20416;-77
2021/10/25 02:13:15;;;;;;;18.42;6.05;;;12.80;99.90;;;;;;2069644;28;20025;-80
2021/10/25 02:14:16;;;;;;;19.75;6.25;;;12.70;99.90;;;;;;2071496;28;20409;-79
2021/10/25 02:15:17;;;;;;;21.65;6.38;;;12.70;99.90;;;;;;2080391;28;20029;-78
2021/10/25 02:16:17;;;;;;;13.63;6.07;;;12.70;99.90;;;;;;2074869;28;20109;-79
2021/10/25 02:17:18;;;;;;;18.35;5.65;;;12.70;99.90;;;;;;2081580;28;20117;-79
2021/10/25 02:18:20;;;;;;;15.82;6.00;;;12.80;99.90;;;;;;2081207;28;20033;-78
2021/10/25 02:19:20;;;;;;;14.52;6.30;;;12.70;99.90;;;;;;2070569;28;20807;-79
2021/10/25 02:20:22;;;;;;;19.80;6.15;;;12.80;99.90;;;;;;2081893;28;20028;-79
2021/10/25 02:21:22;;;;;;;21.52;6.60;;;12.70;99.90;;;;;;2084047;28;20045;-78
2021/10/25 02:22:23;;;;;;;23.58;6.88;;;12.80;99.90;;;;;;2081971;28;20036;-79
2021/10/25 02:23:24;;;;;;;14.02;6.47;;;12.80;99.90;;;;;;2080940;28;20021;-78
2021/10/25 02:24:25;;;;;;;16.80;6.72;;;12.70;99.90;;;;;;2076835;28;20069;-79
2021/10/25 02:25:25;;;;;;;22.10;7.25;;;12.80;99.90;;;;;;2075190;28;20026;-77
2021/10/25 02:26:26;;;;;;;19.85;6.97;;;12.80;99.90;;;;;;2068147;28;20631;-78
2021/10/25 02:27:27;;;;;;;22.10;7.05;;;12.80;99.90;;;;;;2073341;28;20103;-78
2021/10/25 02:28:28;;;;;;;17.30;6.90;;;12.80;99.90;;;;;;2068757;28;20382;-78
2021/10/25 02:29:35;;;;;;;19.13;6.85;;;12.80;99.90;;;;;;2074316;28;20036;-78
2021/10/25 02:30:36;;;;;;;19.15;6.82;;;12.80;99.90;;;;;;2081165;28;20025;-77
2021/10/25 02:31:37;;;;;;;16.52;6.82;;;12.80;99.90;;;;;;2081100;28;20026;-78
2021/10/25 02:32:38;;;;;;;23.85;7.18;;;12.80;99.90;;;;;;2081110;28;20124;-78
2021/10/25 02:33:39;;;;;;;18.80;7.43;;;12.80;99.90;;;;;;2072744;28;20025;-78
2021/10/25 02:34:40;;;;;;;21.58;6.90;;;12.80;99.90;;;;;;2069804;28;20140;-79
2021/10/25 02:35:41;;;;;;;24.70;7.43;;;12.80;99.90;;;;;;2066359;28;20069;-78
2021/10/25 02:36:44;;;;;;;24.42;7.60;;;12.80;99.90;;;;;;2067893;28;20029;-79
2021/10/25 02:37:44;;;;;;;23.50;7.38;;;12.80;99.90;;;;;;2073094;28;20030;-78
2021/10/25 02:38:45;;;;;;;18.77;6.38;;;12.80;99.90;;;;;;2072821;28;20505;-78
2021/10/25 02:39:46;;;;;;;18.55;6.47;;;12.80;99.90;;;;;;2072899;28;20068;-79
2021/10/25 02:40:48;;;;;;;18.20;6.88;;;12.80;99.90;;;;;;2071626;28;20029;-78
2021/10/25 02:41:49;;;;;;;17.77;6.32;;;12.70;99.90;;;;;;2070885;28;20034;-78
2021/10/25 02:42:50;;;;;;;20.17;7.10;;;12.70;99.90;;;;;;2070618;28;20048;-78
2021/10/25 02:43:51;;;;;;;17.73;7.28;;;12.70;99.90;;;;;;2072800;28;20024;-78
2021/10/25 02:44:52;;;;;;;20.45;6.90;;;12.70;99.90;;;;;;2072516;28;20030;-79
2021/10/25 02:45:53;;;;;;;25.58;7.38;;;12.70;99.90;;;;;;2072672;28;20018;-78
2021/10/25 02:46:54;;;;;;;21.55;6.90;;;12.70;99.90;;;;;;2072982;28;20097;-78
2021/10/25 02:47:55;;;;;;;24.88;6.88;;;12.70;99.90;;;;;;2068701;28;20033;-79
2021/10/25 02:48:56;;;;;;;24.15;6.57;;;12.70;99.90;;;;;;2070131;28;20109;-77
2021/10/25 02:49:57;;;;;;;19.52;7.03;;;12.70;99.90;;;;;;2064326;28;20026;-78
2021/10/25 02:50:58;;;;;;;27.23;6.90;;;12.70;99.90;;;;;;2068003;28;20028;-78
2021/10/25 02:51:59;;;;;;;21.60;7.47;;;12.70;99.90;;;;;;2073028;28;20065;-78
2021/10/25 02:52:59;;;;;;;20.35;6.75;;;12.70;99.90;;;;;;2080095;28;20822;-78
2021/10/25 02:54:02;;;;;;;25.95;6.85;;;12.70;99.90;;;;;;2080735;28;20018;-78
2021/10/25 02:55:04;;;;;;;20.13;6.55;;;12.70;99.90;;;;;;2072860;28;20026;-78
2021/10/25 02:56:05;;;;;;;21.95;6.78;;;12.70;99.90;;;;;;2080791;28;20018;-77
2021/10/25 02:57:06;;;;;;;21.23;7.00;;;12.70;99.90;;;;;;2081255;28;20405;-78
2021/10/25 02:58:07;;;;;;;21.63;6.97;;;12.60;99.90;;;;;;2072427;28;20046;-76
2021/10/25 02:59:10;;;;;;;24.15;7.03;;;12.60;99.90;;;;;;2081036;28;20025;-77
2021/10/25 03:00:14;;;;;;;22.85;6.97;;;12.70;99.90;;;;;;2077981;28;20112;-79
2021/10/25 03:01:15;;;;;;;19.73;7.05;;;12.60;99.90;;;;;;2077059;28;20029;-78
2021/10/25 03:02:16;;;;;;;21.90;6.77;;;12.70;99.90;;;;;;2074855;28;20465;-80
2021/10/25 03:03:17;;;;;;;17.90;6.15;;;12.70;99.90;;;;;;2074263;28;20272;-78
2021/10/25 03:04:18;;;;;;;20.05;6.68;;;12.70;99.90;;;;;;2072507;28;20030;-77
2021/10/25 03:05:19;;;;;;;17.58;6.45;;;12.70;99.90;;;;;;2064773;28;20032;-76
2021/10/25 03:06:19;;;;;;;23.20;6.82;;;12.70;99.90;;;;;;2068498;28;20440;-78
2021/10/25 03:07:20;;;;;;;17.55;6.80;;;12.70;99.90;;;;;;2073028;28;20069;-78
2021/10/25 03:08:21;;;;;;;20.23;6.13;;;12.70;99.90;;;;;;2075173;28;20033;-80
2021/10/25 03:09:21;;;;;;;19.52;6.07;;;12.70;99.90;;;;;;2066137;28;20510;-80
2021/10/25 03:10:22;;;;;;;20.50;6.40;;;12.70;99.90;;;;;;2072934;28;20070;-77
2021/10/25 03:11:23;;;;;;;22.50;6.47;;;12.70;99.90;;;;;;2068729;28;20049;-79
2021/10/25 03:12:24;;;;;;;17.60;6.30;;;12.70;99.90;;;;;;2075337;28;20039;-79
2021/10/25 03:13:25;;;;;;;18.08;6.03;;;12.70;99.90;;;;;;2077931;28;20052;-81
2021/10/25 03:14:26;;;;;;;21.95;6.15;;;12.70;99.90;;;;;;2075457;28;20397;-79
2021/10/25 03:15:27;;;;;;;19.23;5.80;;;12.70;99.90;;;;;;2072473;28;20026;-80
2021/10/25 03:16:28;;;;;;;20.13;5.50;;;12.70;99.90;;;;;;2073180;28;20033;-80
2021/10/25 03:17:28;;;;;;;16.80;5.35;;;12.80;99.90;;;;;;2065287;28;20162;-80
2021/10/25 03:18:29;;;;;;;18.15;5.38;;;12.80;99.90;;;;;;2081539;28;20522;-79
2021/10/25 03:19:30;;;;;;;19.63;4.90;;;12.80;99.90;;;;;;2074512;28;20037;-78
2021/10/25 03:20:31;;;;;;;18.80;4.95;;;12.80;99.90;;;;;;2079903;28;20032;-78
2021/10/25 03:21:32;;;;;;;21.42;5.15;;;12.80;99.90;;;;;;2081024;28;20029;-80
2021/10/25 03:22:33;;;;;;;22.33;5.75;;;12.80;99.90;;;;;;2081221;28;20018;-79
2021/10/25 03:23:35;;;;;;;19.52;5.30;;;12.80;99.90;;;;;;2073237;28;20068;-79
2021/10/25 03:24:35;;;;;;;23.83;5.63;;;12.80;99.90;;;;;;2081531;28;20033;-79
2021/10/25 03:25:37;;;;;;;14.25;5.13;;;12.80;99.90;;;;;;2065339;28;20019;-79
2021/10/25 03:26:37;;;;;;;18.40;4.68;;;12.90;99.90;;;;;;2077107;28;20038;-80
2021/10/25 03:27:39;;;;;;;15.75;4.78;;;12.90;99.90;;;;;;2081913;28;20049;-80
2021/10/25 03:28:40;;;;;;;10.25;3.72;;;12.90;99.90;;;;;;2084447;28;20632;-78
2021/10/25 03:29:41;;;;;;;15.63;4.20;;;12.90;99.90;;;;;;2080910;28;20025;-79
2021/10/25 03:30:42;;;;;;;13.70;3.53;;;12.90;99.90;;;;;;2073262;28;20045;-79
2021/10/25 03:31:43;;;;;;;10.47;3.93;;;12.90;99.90;;;;;;2077436;28;21810;-81
2021/10/25 03:32:44;;;;;;;17.25;3.90;;;12.90;99.90;;;;;;2073754;28;20275;-79
2021/10/25 03:33:46;;;;;;;16.15;4.38;;;12.90;99.90;;;;;;2069149;28;20030;-79
2021/10/25 03:34:47;;;;;;;;;;;12.90;99.90;;;;;;2066085;28;20080;-79
2021/10/25 03:35:48;;;;;;;14.75;4.25;;;12.90;99.90;;;;;;2065795;28;19910;-80
2021/10/25 03:36:49;;;;;;;15.73;4.75;;;12.90;99.90;;;;;;2066737;28;20058;-80
2021/10/25 03:37:50;;;;;;;12.70;4.85;;;12.90;99.90;;;;;;2073146;28;20036;-80
2021/10/25 03:38:51;;;;;;;18.45;4.70;;;12.90;99.90;;;;;;2081840;28;20513;-79
2021/10/25 03:39:52;;;;;;;16.58;4.90;;;13.00;99.90;;;;;;2082899;28;20073;-79
2021/10/25 03:40:55;;;;;;;17.65;5.00;;;13.00;99.90;;;;;;2078742;28;20076;-79
2021/10/25 03:41:57;;;;;;;;;;;13.00;99.90;;;;;;2081753;28;20057;-80
2021/10/25 03:42:58;;;;;;;16.77;4.68;;;13.00;99.90;;;;;;2074311;28;19905;-79
2021/10/25 03:44:05;;;;;;;23.23;5.53;;;12.90;99.90;;;;;;2080292;28;20018;-80
2021/10/25 03:45:18;;;;;;;19.63;5.30;;;12.90;99.90;;;;;;2082128;28;20049;-79
2021/10/25 03:47:28;;;;;;;20.33;5.15;;;13.00;99.90;;;;;;2075453;28;20062;-80
2021/10/25 03:48:47;;;;;;;18.00;4.70;;;13.00;99.90;;;;;;2090405;28;20033;-79
2021/10/25 03:50:07;;;;;;;19.95;5.57;;;13.00;99.90;;;;;;2081642;28;20567;-79
2021/10/25 03:51:10;;;;;;;23.30;5.70;;;13.00;99.90;;;;;;2079064;28;20029;-79
2021/10/25 03:52:20;;;;;;;15.40;5.22;;;13.00;99.90;;;;;;2087971;28;20083;-80
2021/10/25 03:54:36;;;;;;;15.20;4.72;;;13.00;99.90;;;;;;2078613;28;20017;-80
2021/10/25 04:28:18;;;;;;;23.60;4.47;;;12.70;99.90;;;;;;2074700;28;20025;-78
2021/10/25 04:29:24;;;;;;;15.10;4.45;;;12.60;99.90;;;;;;2073796;28;20054;-80
2021/10/25 04:30:28;;;;;;;15.52;4.45;;;12.60;99.90;;;;;;2080171;28;20111;-79
2021/10/25 04:31:28;;;;;;;19.80;4.65;;;12.60;99.90;;;;;;2081478;28;20497;-79
2021/10/25 04:32:29;;;;;;;18.80;4.60;;;12.50;99.90;;;;;;2072971;28;20033;-79
2021/10/25 04:33:30;;;;;;;13.57;4.30;;;12.50;99.90;;;;;;2072356;28;20058;-80
2021/10/25 04:34:30;;;;;;;19.25;4.45;;;12.50;99.90;;;;;;2073731;28;20405;-78
2021/10/25 04:35:32;;;;;;;17.00;4.45;;;12.40;99.90;;;;;;2073517;28;20083;-79
2021/10/25 04:36:33;;;;;;;10.43;4.13;;;12.40;99.90;;;;;;2073731;28;20520;-78
2021/10/25 04:37:34;;;;;;;13.40;3.85;;;12.30;99.90;;;;;;2074281;28;20265;-79
2021/10/25 04:38:34;;;;;;;17.20;4.28;;;12.30;99.90;;;;;;2077360;28;20056;-79
2021/10/25 04:39:35;;;;;;;23.33;5.05;;;12.30;99.90;;;;;;2082956;28;20486;-79
2021/10/25 04:40:36;;;;;;;15.75;4.63;;;12.30;99.90;;;;;;2081807;28;20109;-79
2021/10/25 04:41:38;;;;;;;15.30;4.40;;;12.30;99.90;;;;;;2082006;28;20031;-79
2021/10/25 04:42:38;;;;;;;21.85;4.75;;;12.30;99.90;;;;;;2074282;28;20155;-78
2021/10/25 04:43:40;;;;;;;19.30;4.60;;;12.20;99.90;;;;;;2074873;28;20085;-79
2021/10/25 04:44:41;;;;;;;18.73;4.93;;;12.20;99.90;;;;;;2082594;28;20108;-78
2021/10/25 04:45:43;;;;;;;14.27;4.15;;;12.20;99.90;;;;;;2075160;28;20026;-79
2021/10/25 04:46:44;;;;;;;18.58;4.82;;;12.20;99.90;;;;;;2074273;28;20493;-78
2021/10/25 04:47:45;;;;;;;17.33;4.75;;;12.10;99.90;;;;;;2078434;28;20017;-79
2021/10/25 04:48:46;;;;;;;18.27;5.07;;;12.10;99.90;;;;;;2074005;28;20571;-79
2021/10/25 04:49:47;;;;;;;16.65;4.93;;;12.10;99.90;;;;;;2081712;28;20014;-79
2021/10/25 04:50:49;;;;;;;13.48;4.07;;;12.10;99.90;;;;;;2083536;28;20501;-80
2021/10/25 04:51:49;;;;;;;18.80;3.97;;;12.00;99.90;;;;;;2078952;28;20058;-78
2021/10/25 04:52:50;;;;;;;19.63;4.32;;;12.00;99.90;;;;;;2080474;28;20548;-79
2021/10/25 04:53:51;;;;;;;23.27;4.60;;;12.00;99.90;;;;;;2080564;28;20120;-80
2021/10/25 04:54:52;;;;;;;26.90;5.15;;;12.10;99.90;;;;;;2067361;28;20033;-79
2021/10/25 04:55:52;;;;;;;14.77;4.07;;;12.10;99.90;;;;;;2073674;28;20117;-79
2021/10/25 04:56:53;;;;;;;17.77;4.57;;;12.10;99.90;;;;;;2081937;28;20715;-79
2021/10/25 04:57:54;;;;;;;22.73;4.45;;;12.20;99.90;;;;;;2079952;28;20241;-78
2021/10/25 04:58:54;;;;;;;26.08;5.10;;;12.20;99.90;;;;;;2073633;28;20747;-80
2021/10/25 04:59:56;;;;;;;16.38;4.30;;;12.20;99.90;;;;;;2071836;28;20490;-79
2021/10/25 05:00:56;;;;;;;18.20;4.03;;;12.30;99.90;;;;;;2074756;28;20038;-80
2021/10/25 05:01:57;;;;;;;18.52;4.28;;;12.30;99.90;;;;;;2073310;28;20133;-81
2021/10/25 05:02:59;;;;;;;22.52;4.30;;;12.30;99.90;;;;;;2072617;28;20448;-79
2021/10/25 05:04:00;;;;;;;20.30;4.15;;;12.30;99.90;;;;;;2073975;28;20077;-80
2021/10/25 05:05:03;;;;;;;21.27;4.53;;;12.30;99.90;;;;;;2081804;28;20029;-79
2021/10/25 05:06:04;;;;;;;19.23;4.82;;;12.30;99.90;;;;;;2074404;28;20022;-79
2021/10/25 05:07:05;;;;;;;22.52;4.40;;;12.30;99.90;;;;;;2070312;28;20080;-79
2021/10/25 05:08:06;;;;;;;16.52;4.15;;;12.30;99.90;;;;;;2079256;28;20111;-78
2021/10/25 05:09:07;;;;;;;17.15;3.92;;;12.40;99.90;;;;;;2073925;28;20033;-79
2021/10/25 05:10:09;;;;;;;18.60;3.80;;;12.30;99.90;;;;;;2065910;28;20018;-79
2021/10/25 05:11:09;;;;;;;21.25;3.67;;;12.30;99.90;;;;;;2075459;28;20429;-79
2021/10/25 05:12:13;;;;;;;16.25;4.10;;;12.40;99.90;;;;;;2074531;28;20050;-79
2021/10/25 05:13:13;;;;;;;21.90;4.30;;;12.40;99.90;;;;;;2073909;28;20098;-79
2021/10/25 05:14:14;;;;;;;23.40;4.15;;;12.40;99.90;;;;;;2081855;28;20059;-79
2021/10/25 05:15:15;;;;;;;21.45;4.45;;;12.40;99.90;;;;;;2068707;28;20031;-79
2021/10/25 05:16:16;;;;;;;11.93;3.45;;;12.40;99.90;;;;;;2072457;28;20052;-79
2021/10/25 05:17:17;;;;;;;18.70;4.05;;;12.40;99.90;;;;;;2082078;28;20026;-78
2021/10/25 05:18:18;;;;;;;19.88;3.90;;;12.40;99.90;;;;;;2085543;28;20500;-79
2021/10/25 05:19:18;;;;;;;10.57;3.28;;;12.40;99.90;;;;;;2073677;28;20034;-79
2021/10/25 05:20:19;;;;;;;14.52;3.85;;;12.30;99.90;;;;;;2083351;28;20088;-79
2021/10/25 05:21:20;;;;;;;27.73;4.50;;;12.30;99.90;;;;;;2081504;28;20026;-79
2021/10/25 05:22:21;;;;;;;21.10;4.40;;;12.30;99.90;;;;;;2073689;28;20021;-79
2021/10/25 05:23:22;;;;;;;16.85;4.10;;;12.30;99.90;;;;;;2077436;28;20029;-79
2021/10/25 05:24:23;;;;;;;21.48;4.25;;;12.30;99.90;;;;;;2081588;28;20028;-79
2021/10/25 05:25:24;;;;;;;19.27;4.00;;;12.30;99.90;;;;;;2081641;28;20485;-79
2021/10/25 05:26:25;;;;;;;19.50;3.97;;;12.20;99.90;;;;;;2081193;28;20108;-79
2021/10/25 05:27:26;;;;;;;17.73;3.80;;;12.20;99.90;;;;;;2073839;28;20025;-79
2021/10/25 05:28:27;;;;;;;19.70;3.80;;;12.20;99.90;;;;;;2069465;28;20052;-79
2021/10/25 05:29:27;;;;;;;25.63;4.30;;;12.30;99.90;;;;;;2082406;28;20025;-79
2021/10/25 05:30:28;;;;;;;15.43;3.60;;;12.30;99.90;;;;;;2081961;28;20080;-79
2021/10/25 05:31:29;;;;;;;16.17;4.15;;;12.20;99.90;;;;;;2073739;28;20176;-79
2021/10/25 05:32:30;;;;;;;19.50;3.67;;;12.30;99.90;;;;;;2073490;28;20402;-79
2021/10/25 05:33:31;;;;;;;20.70;4.03;;;12.30;99.90;;;;;;2080898;28;20278;-78
2021/10/25 05:34:32;;;;;;;22.13;3.97;;;12.20;99.90;;;;;;2090592;28;20123;-79
2021/10/25 05:35:32;;;;;;;22.67;4.28;;;12.30;99.90;;;;;;2084199;28;20045;-79
2021/10/25 05:36:33;;;;;;;21.88;4.07;;;12.20;99.90;;;;;;2089440;28;20047;-79
2021/10/25 05:37:34;;;;;;;25.50;4.43;;;12.20;99.90;;;;;;2075901;28;20026;-78
2021/10/25 05:38:36;;;;;;;15.88;4.38;;;12.20;99.90;;;;;;2078888;28;20068;-78
2021/10/25 05:39:37;;;;;;;;;;;12.20;99.90;;;;;;2083187;28;20029;-80
2021/10/25 05:40:39;;;;;;;23.35;4.45;;;12.20;99.90;;;;;;2086476;28;19905;-79
2021/10/25 05:41:40;;;;;;;15.52;4.13;;;12.20;99.90;;;;;;2075578;28;20049;-79
2021/10/25 05:42:41;;;;;;;21.13;4.68;;;12.20;99.90;;;;;;2074394;28;20022;-80
2021/10/25 05:43:41;;;;;;;17.08;3.70;;;12.20;99.90;;;;;;2074297;28;20493;-79
2021/10/25 05:44:42;;;;;;;18.88;4.00;;;12.20;99.90;;;;;;2075279;28;20046;-80
2021/10/25 05:45:43;;;;;;;17.55;4.55;;;12.20;99.90;;;;;;2077132;28;20026;-79
2021/10/25 05:46:43;;;;;;;24.55;5.45;;;12.20;99.90;;;;;;2073552;28;20028;-79
2021/10/25 05:47:47;;;;;;;17.00;4.82;;;12.20;99.90;;;;;;2078339;28;20017;-79
2021/10/25 05:48:51;;;;;;;16.40;4.57;;;12.20;99.90;;;;;;2081774;28;20155;-79
2021/10/25 05:49:51;;;;;;;21.63;4.32;;;12.20;99.90;;;;;;2071417;28;20034;-79
2021/10/25 05:50:52;;;;;;;21.75;3.97;;;12.20;99.90;;;;;;2065599;28;20019;-79